sensor_id;sensor_type;location;lat;lon;timestamp;P1;durP1;ratioP1;P2;durP2;ratioP2
50821;SDS011;36794;51.212;6.980;2023-05-07T00:00:25;7.63;;;3.10;;
50821;SDS011;36794;51.212;6.980;2023-05-07T00:02:51;9.40;;;3.25;;
50821;SDS011;36794;51.212;6.980;2023-05-07T00:05:18;8.63;;;3.45;;
50821;SDS011;36794;51.212;6.980;2023-05-07T00:07:45;6.65;;;3.28;;
50821;SDS011;36794;51.212;6.980;2023-05-07T00:10:11;8.00;;;3.30;;
50821;SDS011;36794;51.212;6.980;2023-05-07T00:12:37;4.43;;;2.75;;
50821;SDS011;36794;51.212;6.980;2023-05-07T00:15:03;9.05;;;2.97;;
50821;SDS011;36794;51.212;6.980;2023-05-07T00:17:30;4.90;;;2.97;;
50821;SDS011;36794;51.212;6.980;2023-05-07T00:19:56;4.32;;;3.10;;
50821;SDS011;36794;51.212;6.980;2023-05-07T00:22:21;8.18;;;3.10;;
50821;SDS011;36794;51.212;6.980;2023-05-07T00:24:47;4.95;;;3.10;;
50821;SDS011;36794;51.212;6.980;2023-05-07T00:27:13;4.35;;;2.78;;
50821;SDS011;36794;51.212;6.980;2023-05-07T00:29:40;6.90;;;3.20;;
50821;SDS011;36794;51.212;6.980;2023-05-07T00:32:05;5.15;;;3.00;;
50821;SDS011;36794;51.212;6.980;2023-05-07T00:34:31;6.50;;;3.47;;
50821;SDS011;36794;51.212;6.980;2023-05-07T00:36:57;6.80;;;3.40;;
50821;SDS011;36794;51.212;6.980;2023-05-07T00:39:23;7.35;;;3.10;;
50821;SDS011;36794;51.212;6.980;2023-05-07T00:41:49;8.20;;;3.20;;
50821;SDS011;36794;51.212;6.980;2023-05-07T00:44:16;8.02;;;3.30;;
50821;SDS011;36794;51.212;6.980;2023-05-07T00:46:43;6.78;;;3.00;;
50821;SDS011;36794;51.212;6.980;2023-05-07T00:49:09;7.53;;;3.50;;
50821;SDS011;36794;51.212;6.980;2023-05-07T00:51:35;6.53;;;3.33;;
50821;SDS011;36794;51.212;6.980;2023-05-07T00:54:02;7.38;;;3.30;;
50821;SDS011;36794;51.212;6.980;2023-05-07T00:56:28;4.90;;;2.88;;
50821;SDS011;36794;51.212;6.980;2023-05-07T00:58:54;6.95;;;2.58;;
50821;SDS011;36794;51.212;6.980;2023-05-07T01:01:20;5.43;;;3.15;;
50821;SDS011;36794;51.212;6.980;2023-05-07T01:03:46;8.45;;;3.42;;
50821;SDS011;36794;51.212;6.980;2023-05-07T01:06:12;5.70;;;2.50;;
50821;SDS011;36794;51.212;6.980;2023-05-07T01:08:41;8.38;;;2.78;;
50821;SDS011;36794;51.212;6.980;2023-05-07T01:11:07;7.60;;;2.10;;
50821;SDS011;36794;51.212;6.980;2023-05-07T01:13:34;5.28;;;1.98;;
50821;SDS011;36794;51.212;6.980;2023-05-07T01:16:00;4.03;;;1.83;;
50821;SDS011;36794;51.212;6.980;2023-05-07T01:18:26;4.70;;;2.30;;
50821;SDS011;36794;51.212;6.980;2023-05-07T01:20:54;3.92;;;2.10;;
50821;SDS011;36794;51.212;6.980;2023-05-07T01:23:21;3.53;;;2.10;;
50821;SDS011;36794;51.212;6.980;2023-05-07T01:25:54;3.35;;;2.35;;
50821;SDS011;36794;51.212;6.980;2023-05-07T01:28:20;6.05;;;2.70;;
50821;SDS011;36794;51.212;6.980;2023-05-07T01:30:48;4.43;;;2.72;;
50821;SDS011;36794;51.212;6.980;2023-05-07T01:33:15;8.30;;;3.00;;
50821;SDS011;36794;51.212;6.980;2023-05-07T01:35:43;6.10;;;2.60;;
50821;SDS011;36794;51.212;6.980;2023-05-07T01:38:11;6.20;;;2.70;;
50821;SDS011;36794;51.212;6.980;2023-05-07T01:40:37;6.53;;;2.22;;
50821;SDS011;36794;51.212;6.980;2023-05-07T01:43:03;6.18;;;2.40;;
50821;SDS011;36794;51.212;6.980;2023-05-07T01:45:30;8.70;;;2.80;;
50821;SDS011;36794;51.212;6.980;2023-05-07T01:47:56;4.85;;;2.70;;
50821;SDS011;36794;51.212;6.980;2023-05-07T01:50:23;5.78;;;2.70;;
50821;SDS011;36794;51.212;6.980;2023-05-07T01:52:50;7.00;;;2.13;;
50821;SDS011;36794;51.212;6.980;2023-05-07T01:55:16;4.07;;;1.87;;
50821;SDS011;36794;51.212;6.980;2023-05-07T01:57:42;5.10;;;1.43;;
50821;SDS011;36794;51.212;6.980;2023-05-07T02:00:08;10.32;;;1.80;;
50821;SDS011;36794;51.212;6.980;2023-05-07T02:02:34;7.95;;;1.75;;
50821;SDS011;36794;51.212;6.980;2023-05-07T02:05:00;3.75;;;1.58;;
50821;SDS011;36794;51.212;6.980;2023-05-07T02:07:27;5.10;;;2.17;;
50821;SDS011;36794;51.212;6.980;2023-05-07T02:09:53;4.68;;;2.38;;
50821;SDS011;36794;51.212;6.980;2023-05-07T02:12:20;5.07;;;2.22;;
50821;SDS011;36794;51.212;6.980;2023-05-07T02:14:46;3.78;;;2.78;;
50821;SDS011;36794;51.212;6.980;2023-05-07T02:17:12;6.65;;;2.30;;
50821;SDS011;36794;51.212;6.980;2023-05-07T02:19:38;5.88;;;2.30;;
50821;SDS011;36794;51.212;6.980;2023-05-07T02:22:04;3.17;;;2.28;;
50821;SDS011;36794;51.212;6.980;2023-05-07T02:24:30;5.70;;;2.15;;
50821;SDS011;36794;51.212;6.980;2023-05-07T02:26:56;4.22;;;2.33;;
50821;SDS011;36794;51.212;6.980;2023-05-07T02:29:22;4.82;;;2.25;;
50821;SDS011;36794;51.212;6.980;2023-05-07T02:31:48;7.65;;;2.40;;
50821;SDS011;36794;51.212;6.980;2023-05-07T02:34:18;3.87;;;1.70;;
50821;SDS011;36794;51.212;6.980;2023-05-07T02:36:44;4.75;;;1.60;;
50821;SDS011;36794;51.212;6.980;2023-05-07T02:39:10;3.27;;;1.40;;
50821;SDS011;36794;51.212;6.980;2023-05-07T02:41:36;4.27;;;1.63;;
50821;SDS011;36794;51.212;6.980;2023-05-07T02:44:02;6.70;;;1.53;;
50821;SDS011;36794;51.212;6.980;2023-05-07T02:46:28;3.47;;;1.60;;
50821;SDS011;36794;51.212;6.980;2023-05-07T02:48:54;3.60;;;1.70;;
50821;SDS011;36794;51.212;6.980;2023-05-07T02:51:21;6.78;;;1.67;;
50821;SDS011;36794;51.212;6.980;2023-05-07T02:53:47;4.10;;;1.20;;
50821;SDS011;36794;51.212;6.980;2023-05-07T02:56:13;3.60;;;1.20;;
50821;SDS011;36794;51.212;6.980;2023-05-07T02:58:39;2.70;;;1.30;;
50821;SDS011;36794;51.212;6.980;2023-05-07T03:01:07;3.45;;;1.17;;
50821;SDS011;36794;51.212;6.980;2023-05-07T03:03:33;4.20;;;1.27;;
50821;SDS011;36794;51.212;6.980;2023-05-07T03:05:59;2.78;;;1.40;;
50821;SDS011;36794;51.212;6.980;2023-05-07T03:08:25;3.05;;;1.52;;
50821;SDS011;36794;51.212;6.980;2023-05-07T03:10:51;4.27;;;1.40;;
50821;SDS011;36794;51.212;6.980;2023-05-07T03:13:18;4.07;;;1.20;;
50821;SDS011;36794;51.212;6.980;2023-05-07T03:15:44;2.63;;;1.30;;
50821;SDS011;36794;51.212;6.980;2023-05-07T03:18:10;2.97;;;1.30;;
50821;SDS011;36794;51.212;6.980;2023-05-07T03:20:36;5.07;;;1.33;;
50821;SDS011;36794;51.212;6.980;2023-05-07T03:23:02;4.27;;;1.37;;
50821;SDS011;36794;51.212;6.980;2023-05-07T03:25:28;5.97;;;1.20;;
50821;SDS011;36794;51.212;6.980;2023-05-07T03:27:57;4.17;;;1.10;;
50821;SDS011;36794;51.212;6.980;2023-05-07T03:30:23;3.40;;;1.20;;
50821;SDS011;36794;51.212;6.980;2023-05-07T03:32:49;2.20;;;1.17;;
50821;SDS011;36794;51.212;6.980;2023-05-07T03:35:15;9.37;;;1.40;;
50821;SDS011;36794;51.212;6.980;2023-05-07T03:37:41;3.33;;;1.30;;
50821;SDS011;36794;51.212;6.980;2023-05-07T03:40:07;3.50;;;1.47;;
50821;SDS011;36794;51.212;6.980;2023-05-07T03:42:35;6.60;;;1.97;;
50821;SDS011;36794;51.212;6.980;2023-05-07T03:45:01;7.87;;;1.80;;
50821;SDS011;36794;51.212;6.980;2023-05-07T03:47:27;4.57;;;1.70;;
50821;SDS011;36794;51.212;6.980;2023-05-07T03:49:53;5.83;;;1.70;;
50821;SDS011;36794;51.212;6.980;2023-05-07T03:52:19;5.93;;;2.00;;
50821;SDS011;36794;51.212;6.980;2023-05-07T03:54:50;3.33;;;1.77;;
50821;SDS011;36794;51.212;6.980;2023-05-07T03:57:16;5.87;;;2.03;;
50821;SDS011;36794;51.212;6.980;2023-05-07T03:59:42;4.37;;;1.63;;
50821;SDS011;36794;51.212;6.980;2023-05-07T04:02:08;2.63;;;1.53;;
50821;SDS011;36794;51.212;6.980;2023-05-07T04:04:34;5.20;;;2.20;;
50821;SDS011;36794;51.212;6.980;2023-05-07T04:07:00;3.27;;;1.90;;
50821;SDS011;36794;51.212;6.980;2023-05-07T04:09:26;2.57;;;1.87;;
50821;SDS011;36794;51.212;6.980;2023-05-07T04:11:52;2.87;;;1.60;;
50821;SDS011;36794;51.212;6.980;2023-05-07T04:14:18;3.10;;;1.90;;
50821;SDS011;36794;51.212;6.980;2023-05-07T04:16:44;2.80;;;1.50;;
50821;SDS011;36794;51.212;6.980;2023-05-07T04:19:10;3.07;;;1.80;;
50821;SDS011;36794;51.212;6.980;2023-05-07T04:21:36;2.63;;;1.70;;
50821;SDS011;36794;51.212;6.980;2023-05-07T04:24:02;3.50;;;1.83;;
50821;SDS011;36794;51.212;6.980;2023-05-07T04:26:29;5.60;;;1.90;;
50821;SDS011;36794;51.212;6.980;2023-05-07T04:28:55;2.70;;;1.50;;
50821;SDS011;36794;51.212;6.980;2023-05-07T04:31:22;5.57;;;1.50;;
50821;SDS011;36794;51.212;6.980;2023-05-07T04:33:48;2.43;;;1.30;;
50821;SDS011;36794;51.212;6.980;2023-05-07T04:36:15;3.77;;;1.30;;
50821;SDS011;36794;51.212;6.980;2023-05-07T04:38:41;8.33;;;2.53;;
50821;SDS011;36794;51.212;6.980;2023-05-07T04:41:08;6.27;;;1.70;;
50821;SDS011;36794;51.212;6.980;2023-05-07T04:43:34;5.13;;;1.57;;
50821;SDS011;36794;51.212;6.980;2023-05-07T04:46:00;4.47;;;1.43;;
50821;SDS011;36794;51.212;6.980;2023-05-07T04:48:26;4.67;;;1.50;;
50821;SDS011;36794;51.212;6.980;2023-05-07T04:50:53;7.57;;;2.00;;
50821;SDS011;36794;51.212;6.980;2023-05-07T04:53:19;5.97;;;1.80;;
50821;SDS011;36794;51.212;6.980;2023-05-07T04:55:46;4.70;;;1.90;;
50821;SDS011;36794;51.212;6.980;2023-05-07T04:58:12;4.43;;;2.00;;
50821;SDS011;36794;51.212;6.980;2023-05-07T05:00:39;2.33;;;1.60;;
50821;SDS011;36794;51.212;6.980;2023-05-07T05:03:06;2.87;;;1.90;;
50821;SDS011;36794;51.212;6.980;2023-05-07T05:05:32;5.33;;;1.97;;
50821;SDS011;36794;51.212;6.980;2023-05-07T05:07:58;6.67;;;1.70;;
50821;SDS011;36794;51.212;6.980;2023-05-07T05:10:24;3.50;;;1.83;;
50821;SDS011;36794;51.212;6.980;2023-05-07T05:12:50;4.47;;;2.10;;
50821;SDS011;36794;51.212;6.980;2023-05-07T05:15:16;5.53;;;2.47;;
50821;SDS011;36794;51.212;6.980;2023-05-07T05:17:42;8.17;;;1.93;;
50821;SDS011;36794;51.212;6.980;2023-05-07T05:20:09;3.13;;;1.43;;
50821;SDS011;36794;51.212;6.980;2023-05-07T05:22:36;6.23;;;1.53;;
50821;SDS011;36794;51.212;6.980;2023-05-07T05:25:02;3.30;;;1.80;;
50821;SDS011;36794;51.212;6.980;2023-05-07T05:27:28;3.25;;;1.70;;
50821;SDS011;36794;51.212;6.980;2023-05-07T05:29:54;5.20;;;1.73;;
50821;SDS011;36794;51.212;6.980;2023-05-07T05:32:20;6.07;;;1.75;;
50821;SDS011;36794;51.212;6.980;2023-05-07T05:34:46;2.72;;;1.80;;
50821;SDS011;36794;51.212;6.980;2023-05-07T05:37:16;3.92;;;1.60;;
50821;SDS011;36794;51.212;6.980;2023-05-07T05:39:42;5.45;;;1.70;;
50821;SDS011;36794;51.212;6.980;2023-05-07T05:42:08;2.88;;;1.63;;
50821;SDS011;36794;51.212;6.980;2023-05-07T05:44:34;4.30;;;1.70;;
50821;SDS011;36794;51.212;6.980;2023-05-07T05:47:00;7.43;;;2.33;;
50821;SDS011;36794;51.212;6.980;2023-05-07T05:49:26;4.03;;;1.58;;
50821;SDS011;36794;51.212;6.980;2023-05-07T05:51:52;9.38;;;1.92;;
50821;SDS011;36794;51.212;6.980;2023-05-07T05:54:18;3.25;;;1.70;;
50821;SDS011;36794;51.212;6.980;2023-05-07T05:56:44;6.78;;;1.65;;
50821;SDS011;36794;51.212;6.980;2023-05-07T05:59:10;3.83;;;1.75;;
50821;SDS011;36794;51.212;6.980;2023-05-07T06:01:36;3.92;;;1.40;;
50821;SDS011;36794;51.212;6.980;2023-05-07T06:04:02;5.45;;;1.40;;
50821;SDS011;36794;51.212;6.980;2023-05-07T06:06:28;3.30;;;1.50;;
50821;SDS011;36794;51.212;6.980;2023-05-07T06:08:54;2.80;;;1.58;;
50821;SDS011;36794;51.212;6.980;2023-05-07T06:11:20;4.15;;;1.98;;
50821;SDS011;36794;51.212;6.980;2023-05-07T06:13:46;6.75;;;1.70;;
50821;SDS011;36794;51.212;6.980;2023-05-07T06:16:12;5.95;;;1.60;;
50821;SDS011;36794;51.212;6.980;2023-05-07T06:18:38;5.55;;;1.58;;
50821;SDS011;36794;51.212;6.980;2023-05-07T06:21:04;5.85;;;1.83;;
50821;SDS011;36794;51.212;6.980;2023-05-07T06:23:30;3.10;;;1.58;;
50821;SDS011;36794;51.212;6.980;2023-05-07T06:25:56;4.50;;;1.50;;
50821;SDS011;36794;51.212;6.980;2023-05-07T06:28:22;5.28;;;1.63;;
50821;SDS011;36794;51.212;6.980;2023-05-07T06:30:48;5.03;;;1.52;;
50821;SDS011;36794;51.212;6.980;2023-05-07T06:33:15;3.33;;;1.63;;
50821;SDS011;36794;51.212;6.980;2023-05-07T06:35:41;6.13;;;1.85;;
50821;SDS011;36794;51.212;6.980;2023-05-07T06:38:07;6.18;;;1.50;;
50821;SDS011;36794;51.212;6.980;2023-05-07T06:40:33;2.95;;;1.75;;
50821;SDS011;36794;51.212;6.980;2023-05-07T06:42:59;2.92;;;1.63;;
50821;SDS011;36794;51.212;6.980;2023-05-07T06:45:25;7.50;;;1.70;;
50821;SDS011;36794;51.212;6.980;2023-05-07T06:47:51;5.40;;;1.60;;
50821;SDS011;36794;51.212;6.980;2023-05-07T06:50:17;3.83;;;1.55;;
50821;SDS011;36794;51.212;6.980;2023-05-07T06:52:43;2.83;;;1.73;;
50821;SDS011;36794;51.212;6.980;2023-05-07T06:55:09;3.92;;;1.88;;
50821;SDS011;36794;51.212;6.980;2023-05-07T06:57:36;3.75;;;1.70;;
50821;SDS011;36794;51.212;6.980;2023-05-07T07:00:02;4.38;;;1.52;;
50821;SDS011;36794;51.212;6.980;2023-05-07T07:02:29;5.22;;;1.48;;
50821;SDS011;36794;51.212;6.980;2023-05-07T07:04:55;4.88;;;1.70;;
50821;SDS011;36794;51.212;6.980;2023-05-07T07:07:21;5.43;;;1.98;;
50821;SDS011;36794;51.212;6.980;2023-05-07T07:09:47;8.45;;;1.40;;
50821;SDS011;36794;51.212;6.980;2023-05-07T07:12:13;2.97;;;1.45;;
50821;SDS011;36794;51.212;6.980;2023-05-07T07:14:39;2.20;;;1.30;;
50821;SDS011;36794;51.212;6.980;2023-05-07T07:17:05;5.65;;;1.50;;
50821;SDS011;36794;51.212;6.980;2023-05-07T07:19:31;5.00;;;1.65;;
50821;SDS011;36794;51.212;6.980;2023-05-07T07:21:57;6.07;;;1.45;;
50821;SDS011;36794;51.212;6.980;2023-05-07T07:24:23;5.00;;;1.50;;
50821;SDS011;36794;51.212;6.980;2023-05-07T07:26:49;2.35;;;1.40;;
50821;SDS011;36794;51.212;6.980;2023-05-07T07:29:15;2.67;;;1.23;;
50821;SDS011;36794;51.212;6.980;2023-05-07T07:31:41;1.67;;;1.13;;
50821;SDS011;36794;51.212;6.980;2023-05-07T07:34:07;5.28;;;1.90;;
50821;SDS011;36794;51.212;6.980;2023-05-07T07:36:33;4.68;;;1.27;;
50821;SDS011;36794;51.212;6.980;2023-05-07T07:38:59;3.28;;;1.20;;
50821;SDS011;36794;51.212;6.980;2023-05-07T07:41:25;3.47;;;1.17;;
50821;SDS011;36794;51.212;6.980;2023-05-07T07:43:51;3.55;;;1.33;;
50821;SDS011;36794;51.212;6.980;2023-05-07T07:46:17;3.65;;;1.20;;
50821;SDS011;36794;51.212;6.980;2023-05-07T07:48:43;3.80;;;1.20;;
50821;SDS011;36794;51.212;6.980;2023-05-07T07:51:09;3.22;;;1.30;;
50821;SDS011;36794;51.212;6.980;2023-05-07T07:53:35;3.15;;;1.17;;
50821;SDS011;36794;51.212;6.980;2023-05-07T07:56:00;2.90;;;1.38;;
50821;SDS011;36794;51.212;6.980;2023-05-07T07:58:26;5.03;;;1.27;;
50821;SDS011;36794;51.212;6.980;2023-05-07T08:00:52;3.60;;;1.33;;
50821;SDS011;36794;51.212;6.980;2023-05-07T08:03:20;2.80;;;1.20;;
50821;SDS011;36794;51.212;6.980;2023-05-07T08:05:46;2.08;;;0.82;;
50821;SDS011;36794;51.212;6.980;2023-05-07T08:08:14;3.08;;;1.20;;
50821;SDS011;36794;51.212;6.980;2023-05-07T08:10:40;2.67;;;0.70;;
50821;SDS011;36794;51.212;6.980;2023-05-07T08:13:06;2.15;;;0.93;;
50821;SDS011;36794;51.212;6.980;2023-05-07T08:15:32;1.90;;;1.20;;
50821;SDS011;36794;51.212;6.980;2023-05-07T08:17:58;5.05;;;1.08;;
50821;SDS011;36794;51.212;6.980;2023-05-07T08:20:28;2.75;;;0.90;;
50821;SDS011;36794;51.212;6.980;2023-05-07T08:22:54;4.40;;;0.98;;
50821;SDS011;36794;51.212;6.980;2023-05-07T08:25:20;3.33;;;0.90;;
50821;SDS011;36794;51.212;6.980;2023-05-07T08:27:46;4.45;;;1.20;;
50821;SDS011;36794;51.212;6.980;2023-05-07T08:30:12;1.45;;;0.68;;
50821;SDS011;36794;51.212;6.980;2023-05-07T08:32:38;1.27;;;0.70;;
50821;SDS011;36794;51.212;6.980;2023-05-07T08:35:05;3.70;;;0.80;;
50821;SDS011;36794;51.212;6.980;2023-05-07T08:37:31;3.63;;;0.82;;
50821;SDS011;36794;51.212;6.980;2023-05-07T08:39:56;3.05;;;0.90;;
50821;SDS011;36794;51.212;6.980;2023-05-07T08:42:23;4.13;;;0.90;;
50821;SDS011;36794;51.212;6.980;2023-05-07T08:44:52;2.10;;;0.80;;
50821;SDS011;36794;51.212;6.980;2023-05-07T08:47:22;2.50;;;1.00;;
50821;SDS011;36794;51.212;6.980;2023-05-07T08:49:48;2.03;;;1.10;;
50821;SDS011;36794;51.212;6.980;2023-05-07T08:52:15;3.95;;;0.88;;
50821;SDS011;36794;51.212;6.980;2023-05-07T08:54:41;2.08;;;0.80;;
50821;SDS011;36794;51.212;6.980;2023-05-07T08:57:07;2.83;;;0.90;;
50821;SDS011;36794;51.212;6.980;2023-05-07T08:59:33;2.72;;;1.00;;
50821;SDS011;36794;51.212;6.980;2023-05-07T09:01:59;5.32;;;0.85;;
50821;SDS011;36794;51.212;6.980;2023-05-07T09:04:25;2.30;;;0.82;;
50821;SDS011;36794;51.212;6.980;2023-05-07T09:06:51;2.15;;;0.70;;
50821;SDS011;36794;51.212;6.980;2023-05-07T09:09:17;7.47;;;1.65;;
50821;SDS011;36794;51.212;6.980;2023-05-07T09:11:43;1.73;;;0.70;;
50821;SDS011;36794;51.212;6.980;2023-05-07T09:14:09;5.85;;;0.80;;
50821;SDS011;36794;51.212;6.980;2023-05-07T09:16:35;1.02;;;0.57;;
50821;SDS011;36794;51.212;6.980;2023-05-07T09:19:01;5.68;;;0.90;;
50821;SDS011;36794;51.212;6.980;2023-05-07T09:21:27;3.03;;;0.82;;
50821;SDS011;36794;51.212;6.980;2023-05-07T09:23:54;3.28;;;0.90;;
50821;SDS011;36794;51.212;6.980;2023-05-07T09:26:21;1.90;;;0.70;;
50821;SDS011;36794;51.212;6.980;2023-05-07T09:28:47;2.72;;;0.80;;
50821;SDS011;36794;51.212;6.980;2023-05-07T09:31:13;1.13;;;0.47;;
50821;SDS011;36794;51.212;6.980;2023-05-07T09:33:39;1.05;;;0.55;;
50821;SDS011;36794;51.212;6.980;2023-05-07T09:36:05;4.43;;;0.68;;
50821;SDS011;36794;51.212;6.980;2023-05-07T09:38:32;2.40;;;0.60;;
50821;SDS011;36794;51.212;6.980;2023-05-07T09:43:31;2.42;;;0.90;;
50821;SDS011;36794;51.212;6.980;2023-05-07T09:45:58;2.95;;;0.70;;
50821;SDS011;36794;51.212;6.980;2023-05-07T09:48:25;2.83;;;0.75;;
50821;SDS011;36794;51.212;6.980;2023-05-07T09:50:51;1.25;;;0.68;;
50821;SDS011;36794;51.212;6.980;2023-05-07T09:53:23;1.75;;;0.80;;
50821;SDS011;36794;51.212;6.980;2023-05-07T09:55:50;1.15;;;0.60;;
50821;SDS011;36794;51.212;6.980;2023-05-07T09:58:16;2.63;;;0.90;;
50821;SDS011;36794;51.212;6.980;2023-05-07T10:00:44;1.65;;;0.60;;
50821;SDS011;36794;51.212;6.980;2023-05-07T10:03:11;2.58;;;0.80;;
50821;SDS011;36794;51.212;6.980;2023-05-07T10:05:37;1.42;;;0.68;;
50821;SDS011;36794;51.212;6.980;2023-05-07T10:08:05;2.47;;;0.90;;
50821;SDS011;36794;51.212;6.980;2023-05-07T10:10:32;1.88;;;0.88;;
50821;SDS011;36794;51.212;6.980;2023-05-07T10:12:58;2.75;;;0.80;;
50821;SDS011;36794;51.212;6.980;2023-05-07T10:15:25;2.45;;;0.70;;
50821;SDS011;36794;51.212;6.980;2023-05-07T10:17:51;2.20;;;0.80;;
50821;SDS011;36794;51.212;6.980;2023-05-07T10:20:17;1.77;;;0.70;;
50821;SDS011;36794;51.212;6.980;2023-05-07T10:22:43;1.33;;;0.50;;
50821;SDS011;36794;51.212;6.980;2023-05-07T10:25:31;1.27;;;0.55;;
50821;SDS011;36794;51.212;6.980;2023-05-07T10:27:57;2.95;;;0.82;;
50821;SDS011;36794;51.212;6.980;2023-05-07T10:33:10;1.95;;;0.70;;
50821;SDS011;36794;51.212;6.980;2023-05-07T10:35:38;1.65;;;0.55;;
50821;SDS011;36794;51.212;6.980;2023-05-07T10:38:05;2.58;;;0.68;;
50821;SDS011;36794;51.212;6.980;2023-05-07T10:40:37;1.83;;;0.77;;
50821;SDS011;36794;51.212;6.980;2023-05-07T10:43:06;3.47;;;0.70;;
50821;SDS011;36794;51.212;6.980;2023-05-07T10:45:32;2.90;;;0.80;;
50821;SDS011;36794;51.212;6.980;2023-05-07T10:50:30;1.55;;;0.60;;
50821;SDS011;36794;51.212;6.980;2023-05-07T10:58:25;1.98;;;0.70;;
50821;SDS011;36794;51.212;6.980;2023-05-07T11:03:24;2.60;;;0.60;;
50821;SDS011;36794;51.212;6.980;2023-05-07T11:08:52;1.80;;;0.80;;
50821;SDS011;36794;51.212;6.980;2023-05-07T11:11:18;3.67;;;0.90;;
50821;SDS011;36794;51.212;6.980;2023-05-07T11:13:47;1.77;;;0.60;;
50821;SDS011;36794;51.212;6.980;2023-05-07T11:16:17;3.88;;;0.80;;
50821;SDS011;36794;51.212;6.980;2023-05-07T11:18:50;2.72;;;0.73;;
50821;SDS011;36794;51.212;6.980;2023-05-07T11:24:13;3.50;;;0.80;;
50821;SDS011;36794;51.212;6.980;2023-05-07T11:26:49;2.83;;;0.70;;
50821;SDS011;36794;51.212;6.980;2023-05-07T11:29:19;2.35;;;0.50;;
50821;SDS011;36794;51.212;6.980;2023-05-07T11:31:52;5.50;;;1.38;;
50821;SDS011;36794;51.212;6.980;2023-05-07T11:34:25;1.35;;;0.60;;
50821;SDS011;36794;51.212;6.980;2023-05-07T11:36:54;6.03;;;0.80;;
50821;SDS011;36794;51.212;6.980;2023-05-07T11:39:38;4.38;;;0.98;;
50821;SDS011;36794;51.212;6.980;2023-05-07T11:42:04;5.38;;;0.80;;
50821;SDS011;36794;51.212;6.980;2023-05-07T11:44:43;4.47;;;1.02;;
50821;SDS011;36794;51.212;6.980;2023-05-07T11:47:11;1.08;;;0.60;;
50821;SDS011;36794;51.212;6.980;2023-05-07T11:49:37;3.95;;;0.90;;
50821;SDS011;36794;51.212;6.980;2023-05-07T11:52:03;2.80;;;0.75;;
50821;SDS011;36794;51.212;6.980;2023-05-07T11:54:36;1.73;;;0.70;;
50821;SDS011;36794;51.212;6.980;2023-05-07T11:57:02;1.35;;;0.70;;
50821;SDS011;36794;51.212;6.980;2023-05-07T11:59:28;1.17;;;0.60;;
50821;SDS011;36794;51.212;6.980;2023-05-07T12:01:57;2.42;;;0.70;;
50821;SDS011;36794;51.212;6.980;2023-05-07T12:04:24;4.43;;;0.70;;
50821;SDS011;36794;51.212;6.980;2023-05-07T12:06:53;2.83;;;0.90;;
50821;SDS011;36794;51.212;6.980;2023-05-07T12:09:20;2.15;;;0.80;;
50821;SDS011;36794;51.212;6.980;2023-05-07T12:11:46;3.22;;;0.70;;
50821;SDS011;36794;51.212;6.980;2023-05-07T12:14:12;2.90;;;0.80;;
50821;SDS011;36794;51.212;6.980;2023-05-07T12:16:40;7.43;;;0.88;;
50821;SDS011;36794;51.212;6.980;2023-05-07T12:19:07;5.88;;;1.05;;
50821;SDS011;36794;51.212;6.980;2023-05-07T12:21:34;2.55;;;0.70;;
50821;SDS011;36794;51.212;6.980;2023-05-07T12:24:00;2.90;;;1.02;;
50821;SDS011;36794;51.212;6.980;2023-05-07T12:26:27;4.93;;;1.13;;
50821;SDS011;36794;51.212;6.980;2023-05-07T12:28:53;2.55;;;0.88;;
50821;SDS011;36794;51.212;6.980;2023-05-07T12:31:19;2.67;;;0.85;;
50821;SDS011;36794;51.212;6.980;2023-05-07T12:33:45;5.25;;;0.82;;
50821;SDS011;36794;51.212;6.980;2023-05-07T12:36:12;2.80;;;0.90;;
50821;SDS011;36794;51.212;6.980;2023-05-07T12:38:38;2.15;;;0.85;;
50821;SDS011;36794;51.212;6.980;2023-05-07T12:41:06;2.08;;;1.00;;
50821;SDS011;36794;51.212;6.980;2023-05-07T12:43:32;7.43;;;1.20;;
50821;SDS011;36794;51.212;6.980;2023-05-07T12:46:03;2.47;;;0.95;;
50821;SDS011;36794;51.212;6.980;2023-05-07T12:48:29;8.60;;;1.30;;
50821;SDS011;36794;51.212;6.980;2023-05-07T12:51:01;2.13;;;1.00;;
50821;SDS011;36794;51.212;6.980;2023-05-07T12:53:27;3.80;;;1.20;;
50821;SDS011;36794;51.212;6.980;2023-05-07T12:55:55;6.47;;;1.40;;
50821;SDS011;36794;51.212;6.980;2023-05-07T13:01:28;3.85;;;1.00;;
50821;SDS011;36794;51.212;6.980;2023-05-07T13:03:57;4.43;;;1.20;;
50821;SDS011;36794;51.212;6.980;2023-05-07T13:06:26;5.85;;;1.25;;
50821;SDS011;36794;51.212;6.980;2023-05-07T13:08:52;2.85;;;1.40;;
50821;SDS011;36794;51.212;6.980;2023-05-07T13:11:18;2.17;;;1.30;;
50821;SDS011;36794;51.212;6.980;2023-05-07T13:13:45;9.38;;;1.77;;
50821;SDS011;36794;51.212;6.980;2023-05-07T13:16:11;3.22;;;1.30;;
50821;SDS011;36794;51.212;6.980;2023-05-07T13:18:38;3.40;;;1.10;;
50821;SDS011;36794;51.212;6.980;2023-05-07T13:21:04;2.78;;;1.10;;
50821;SDS011;36794;51.212;6.980;2023-05-07T13:23:30;5.68;;;1.65;;
50821;SDS011;36794;51.212;6.980;2023-05-07T13:25:56;5.90;;;1.42;;
50821;SDS011;36794;51.212;6.980;2023-05-07T13:28:22;4.53;;;1.60;;
50821;SDS011;36794;51.212;6.980;2023-05-07T13:30:48;3.40;;;1.65;;
50821;SDS011;36794;51.212;6.980;2023-05-07T13:33:16;2.63;;;1.55;;
50821;SDS011;36794;51.212;6.980;2023-05-07T13:35:42;2.50;;;1.50;;
50821;SDS011;36794;51.212;6.980;2023-05-07T13:38:08;3.47;;;1.90;;
50821;SDS011;36794;51.212;6.980;2023-05-07T13:40:35;5.95;;;1.90;;
50821;SDS011;36794;51.212;6.980;2023-05-07T13:43:01;3.35;;;1.70;;
50821;SDS011;36794;51.212;6.980;2023-05-07T13:45:27;4.15;;;2.00;;
50821;SDS011;36794;51.212;6.980;2023-05-07T13:47:54;7.43;;;2.30;;
50821;SDS011;36794;51.212;6.980;2023-05-07T13:50:20;8.43;;;2.40;;
50821;SDS011;36794;51.212;6.980;2023-05-07T13:52:46;5.68;;;2.40;;
50821;SDS011;36794;51.212;6.980;2023-05-07T13:55:19;8.23;;;2.97;;
50821;SDS011;36794;51.212;6.980;2023-05-07T13:57:45;4.00;;;3.35;;
50821;SDS011;36794;51.212;6.980;2023-05-07T14:00:11;15.18;;;4.90;;
50821;SDS011;36794;51.212;6.980;2023-05-07T14:02:38;8.27;;;4.47;;
50821;SDS011;36794;51.212;6.980;2023-05-07T14:05:04;6.40;;;4.30;;
50821;SDS011;36794;51.212;6.980;2023-05-07T14:07:30;10.52;;;4.72;;
50821;SDS011;36794;51.212;6.980;2023-05-07T14:09:56;9.02;;;5.35;;
50821;SDS011;36794;51.212;6.980;2023-05-07T14:12:22;6.97;;;4.82;;
50821;SDS011;36794;51.212;6.980;2023-05-07T14:14:48;9.00;;;4.50;;
50821;SDS011;36794;51.212;6.980;2023-05-07T14:17:15;8.55;;;4.72;;
50821;SDS011;36794;51.212;6.980;2023-05-07T14:19:41;7.53;;;4.05;;
50821;SDS011;36794;51.212;6.980;2023-05-07T14:22:07;10.95;;;4.35;;
50821;SDS011;36794;51.212;6.980;2023-05-07T14:24:33;5.82;;;4.53;;
50821;SDS011;36794;51.212;6.980;2023-05-07T14:27:00;8.43;;;4.57;;
50821;SDS011;36794;51.212;6.980;2023-05-07T14:29:26;7.18;;;4.80;;
50821;SDS011;36794;51.212;6.980;2023-05-07T14:31:51;9.85;;;5.88;;
50821;SDS011;36794;51.212;6.980;2023-05-07T14:34:17;6.78;;;5.65;;
50821;SDS011;36794;51.212;6.980;2023-05-07T14:36:43;9.05;;;6.10;;
50821;SDS011;36794;51.212;6.980;2023-05-07T14:39:09;16.10;;;6.78;;
50821;SDS011;36794;51.212;6.980;2023-05-07T14:41:35;11.20;;;5.82;;
50821;SDS011;36794;51.212;6.980;2023-05-07T14:44:01;12.85;;;6.93;;
50821;SDS011;36794;51.212;6.980;2023-05-07T14:46:29;22.35;;;8.88;;
50821;SDS011;36794;51.212;6.980;2023-05-07T14:48:55;10.70;;;8.10;;
50821;SDS011;36794;51.212;6.980;2023-05-07T14:51:22;16.65;;;8.43;;
50821;SDS011;36794;51.212;6.980;2023-05-07T14:53:50;18.52;;;9.70;;
50821;SDS011;36794;51.212;6.980;2023-05-07T14:56:16;14.90;;;9.43;;
50821;SDS011;36794;51.212;6.980;2023-05-07T14:58:42;13.35;;;8.85;;
50821;SDS011;36794;51.212;6.980;2023-05-07T15:01:08;19.45;;;9.57;;
50821;SDS011;36794;51.212;6.980;2023-05-07T15:03:34;17.17;;;8.00;;
50821;SDS011;36794;51.212;6.980;2023-05-07T15:06:01;15.25;;;9.00;;
50821;SDS011;36794;51.212;6.980;2023-05-07T15:08:27;15.60;;;9.98;;